In Rescue
 
Open Full Screen Window  High Contrast Mode
September 19, 2019 3:53 PM CDT
Weather Information
Wind Direction
  ---
Wind Speed
  00 kt (0 mph)
Wind Gust
  00 kt (0 mph)
Altimeter
30.01 in
Visibility
10 SM
Temperature
26° C
79° F
Dewpoint
19° C
66° F
Humidity
65%
1hr Rain Fall
00.00 in.
24hr Rain Fall
00.06 in.
Sky Condition
Scattered @ 2,500 ft
VFR

METAR KTOB 192053Z AUTO 00000KT 10SM SCT025 26/19 A3001 RMK AO2

FAA Disclaimer: The data displayed is for advisory purposes only and is not to be used for flight planning or operations.